createdAt,value
2023-03-26T00:01:41.626Z,9.94
2023-03-26T00:04:09.433Z,10.03
2023-03-26T00:06:39.972Z,9.91
2023-03-26T00:09:09.880Z,9.89
2023-03-26T00:11:38.995Z,9.99
2023-03-26T00:14:06.748Z,10.11
2023-03-26T00:16:34.901Z,10.35
2023-03-26T00:19:04.071Z,9.66
2023-03-26T00:21:32.049Z,9.90
2023-03-26T00:24:04.358Z,10.17
2023-03-26T00:26:33.652Z,9.90
2023-03-26T00:29:04.025Z,9.81
2023-03-26T00:31:32.239Z,9.98
2023-03-26T00:34:03.108Z,10.21
2023-03-26T00:36:30.986Z,10.26
2023-03-26T00:38:59.001Z,9.91
2023-03-26T00:41:31.070Z,10.14
2023-03-26T00:44:01.001Z,10.49
2023-03-26T00:46:31.697Z,9.90
2023-03-26T00:48:59.902Z,9.99
2023-03-26T00:51:29.269Z,9.99
2023-03-26T00:53:57.800Z,10.20
2023-03-26T00:56:26.140Z,10.04
2023-03-26T00:58:53.902Z,9.93
2023-03-26T01:01:28.376Z,9.98
2023-03-26T01:04:08.964Z,10.29
2023-03-26T01:06:42.055Z,10.18
2023-03-26T01:09:15.991Z,10.07
2023-03-26T01:11:44.362Z,9.92
2023-03-26T01:14:14.494Z,9.88
2023-03-26T01:16:45.992Z,10.26
2023-03-26T01:19:34.012Z,10.22
2023-03-26T01:22:01.897Z,10.18
2023-03-26T01:24:31.126Z,10.21
2023-03-26T01:27:09.621Z,9.89
2023-03-26T01:29:44.142Z,10.07
2023-03-26T01:32:23.864Z,10.07
2023-03-26T01:35:12.453Z,10.07
2023-03-26T01:37:52.577Z,9.90
2023-03-26T01:40:27.406Z,9.87
2023-03-26T01:42:59.872Z,9.89
2023-03-26T01:45:31.198Z,10.07
2023-03-26T01:47:59.502Z,9.97
2023-03-26T01:50:27.388Z,9.99
2023-03-26T01:52:55.261Z,9.87
2023-03-26T01:55:29.963Z,9.68
2023-03-26T01:58:06.376Z,9.78
2023-03-26T02:00:38.587Z,9.72
2023-03-26T02:03:18.786Z,10.04
2023-03-26T02:05:53.679Z,9.88
2023-03-26T02:08:25.658Z,9.92
2023-03-26T02:10:59.161Z,9.71
2023-03-26T02:13:27.813Z,9.36
2023-03-26T02:15:57.271Z,9.50
2023-03-26T02:18:25.256Z,9.79
2023-03-26T02:20:53.886Z,9.72
2023-03-26T02:23:21.986Z,9.80
2023-03-26T02:25:49.731Z,9.73
2023-03-26T02:28:19.087Z,9.94
2023-03-26T02:30:47.500Z,10.25
2023-03-26T02:33:17.327Z,9.86
2023-03-26T02:35:45.999Z,9.90
2023-03-26T02:38:14.482Z,9.95
2023-03-26T02:40:42.548Z,9.44
2023-03-26T02:43:10.314Z,9.65
2023-03-26T02:45:39.441Z,9.84
2023-03-26T02:48:07.941Z,9.88
2023-03-26T02:50:36.847Z,9.71
2023-03-26T02:53:04.578Z,9.78
2023-03-26T02:55:32.329Z,9.49
2023-03-26T02:58:00.355Z,9.76
2023-03-26T03:00:29.064Z,9.80
2023-03-26T03:02:58.806Z,9.77
2023-03-26T03:05:28.501Z,9.92
2023-03-26T03:07:58.271Z,9.55
2023-03-26T03:10:27.631Z,10.09
2023-03-26T03:12:55.940Z,10.03
2023-03-26T03:15:23.723Z,9.92
2023-03-26T03:17:51.559Z,9.82
2023-03-26T03:20:22.012Z,9.59
2023-03-26T03:22:49.754Z,9.64
2023-03-26T03:25:17.662Z,9.64
2023-03-26T03:27:45.607Z,9.77
2023-03-26T03:30:14.751Z,9.98
2023-03-26T03:32:42.689Z,9.56
2023-03-26T03:35:10.650Z,9.63
2023-03-26T03:37:39.795Z,9.68
2023-03-26T03:40:10.895Z,9.65
2023-03-26T03:42:38.826Z,9.54
2023-03-26T03:45:07.748Z,9.62
2023-03-26T03:47:35.602Z,10.05
2023-03-26T03:50:03.368Z,9.95
2023-03-26T03:52:31.086Z,9.80
2023-03-26T03:55:00.970Z,9.86
2023-03-26T03:57:29.082Z,9.80
2023-03-26T03:59:58.172Z,9.90
2023-03-26T04:02:30.315Z,10.00
2023-03-26T04:04:58.577Z,9.84
2023-03-26T04:07:26.976Z,9.89
2023-03-26T04:09:54.800Z,9.69
2023-03-26T04:12:23.952Z,10.00
2023-03-26T04:14:51.680Z,9.80
2023-03-26T04:17:21.921Z,9.71
2023-03-26T04:19:50.307Z,9.45
2023-03-26T04:22:18.452Z,9.27
2023-03-26T04:24:48.765Z,9.39
2023-03-26T04:27:21.292Z,9.62
2023-03-26T04:29:50.955Z,9.74
2023-03-26T04:34:52.564Z,9.27
2023-03-26T04:37:26.639Z,9.65
2023-03-26T04:39:55.072Z,9.77
2023-03-26T04:42:23.063Z,10.03
2023-03-26T04:44:52.353Z,9.77
2023-03-26T04:47:20.531Z,9.95
2023-03-26T04:49:48.791Z,9.59
2023-03-26T04:52:16.683Z,9.73
2023-03-26T04:54:45.985Z,9.64
2023-03-26T04:57:21.249Z,9.78
2023-03-26T04:59:50.131Z,9.55
2023-03-26T05:02:20.152Z,9.71
2023-03-26T05:04:49.915Z,9.37
2023-03-26T05:07:20.345Z,8.94
2023-03-26T05:09:48.092Z,9.38
2023-03-26T05:12:16.470Z,9.20
2023-03-26T05:14:44.254Z,9.10
2023-03-26T05:17:18.796Z,9.16
2023-03-26T05:19:48.277Z,9.07
2023-03-26T05:22:16.128Z,9.52
2023-03-26T05:24:43.888Z,9.44
2023-03-26T05:27:16.857Z,9.29
2023-03-26T05:29:44.809Z,8.80
2023-03-26T05:32:12.751Z,9.69
2023-03-26T05:34:41.475Z,9.38
2023-03-26T05:37:10.570Z,9.54
2023-03-26T05:39:38.542Z,9.41
2023-03-26T05:42:07.840Z,9.68
2023-03-26T05:44:35.730Z,9.22
2023-03-26T05:47:03.887Z,9.14
2023-03-26T05:49:31.602Z,9.18
2023-03-26T05:51:59.364Z,9.64
2023-03-26T05:54:28.706Z,9.52
2023-03-26T05:56:57.825Z,9.16
2023-03-26T05:59:26.026Z,9.52
2023-03-26T06:01:54.610Z,9.24
2023-03-26T06:04:22.548Z,9.16
2023-03-26T06:06:52.678Z,9.05
2023-03-26T06:09:20.660Z,8.81
2023-03-26T06:11:49.762Z,8.51
2023-03-26T06:14:17.516Z,8.10
2023-03-26T06:16:45.234Z,7.84
2023-03-26T06:19:12.997Z,7.76
2023-03-26T06:21:40.804Z,7.81
2023-03-26T06:24:08.901Z,8.00
2023-03-26T06:26:36.850Z,8.28
2023-03-26T06:29:06.236Z,8.23
2023-03-26T06:31:33.997Z,8.09
2023-03-26T06:34:01.742Z,8.23
2023-03-26T06:36:29.448Z,8.37
2023-03-26T06:38:57.271Z,8.60
2023-03-26T06:41:25.010Z,8.60
2023-03-26T06:43:52.944Z,8.28
2023-03-26T06:46:23.511Z,7.95
2023-03-26T06:48:51.723Z,7.89
2023-03-26T06:51:19.476Z,7.85
2023-03-26T06:53:47.331Z,7.94
2023-03-26T06:56:16.465Z,8.11
2023-03-26T06:58:44.216Z,8.39
2023-03-26T07:01:11.981Z,8.13
2023-03-26T07:03:41.131Z,8.43
2023-03-26T07:06:09.470Z,8.18
2023-03-26T07:08:37.202Z,8.33
2023-03-26T07:11:05.430Z,8.12
2023-03-26T07:13:33.150Z,8.25
2023-03-26T07:16:00.980Z,8.28
2023-03-26T07:18:28.771Z,8.23
2023-03-26T07:20:58.555Z,8.30
2023-03-26T07:23:26.790Z,7.82
2023-03-26T07:25:55.574Z,7.92
2023-03-26T07:28:31.448Z,8.17
2023-03-26T07:31:12.029Z,8.02
2023-03-26T07:33:49.107Z,8.18
2023-03-26T07:36:27.653Z,8.13
2023-03-26T07:39:06.801Z,9.03
2023-03-26T07:41:43.692Z,9.22
2023-03-26T07:44:38.106Z,9.02
2023-03-26T07:47:16.602Z,8.13
2023-03-26T07:49:44.823Z,8.45
2023-03-26T07:52:14.637Z,8.95
2023-03-26T07:54:42.880Z,8.20
2023-03-26T07:57:17.831Z,8.45
2023-03-26T07:59:52.411Z,8.77
2023-03-26T08:02:43.181Z,9.60
2023-03-26T08:05:19.784Z,8.98
2023-03-26T08:07:59.930Z,8.98
2023-03-26T08:10:35.453Z,8.31
2023-03-26T08:13:17.162Z,9.11
2023-03-26T08:15:53.522Z,8.90
2023-03-26T08:18:32.553Z,9.23
2023-03-26T08:21:06.209Z,8.63
2023-03-26T08:23:50.757Z,8.71
2023-03-26T08:26:32.430Z,8.99
2023-03-26T08:29:10.577Z,8.76
2023-03-26T08:31:42.274Z,9.49
2023-03-26T08:34:12.211Z,9.11
2023-03-26T08:36:40.192Z,8.52
2023-03-26T08:39:09.652Z,8.34
2023-03-26T08:42:05.901Z,8.77
2023-03-26T08:45:02.309Z,9.48
2023-03-26T08:48:21.085Z,9.56
2023-03-26T08:51:28.070Z,9.43
2023-03-26T08:54:28.339Z,9.11
2023-03-26T08:57:11.404Z,9.34
2023-03-26T09:00:13.446Z,9.27
2023-03-26T09:03:10.547Z,9.00
2023-03-26T09:06:17.191Z,9.42
2023-03-26T09:09:30.520Z,9.43
2023-03-26T09:12:50.357Z,9.81
2023-03-26T09:15:52.849Z,10.19
2023-03-26T09:19:04.550Z,9.17
2023-03-26T09:22:05.978Z,9.70
2023-03-26T09:24:58.546Z,9.31
2023-03-26T09:27:38.209Z,10.05
2023-03-26T09:30:34.234Z,9.13
2023-03-26T09:33:21.917Z,9.13
2023-03-26T09:35:54.452Z,9.02
2023-03-26T09:38:38.017Z,9.74
2023-03-26T09:41:13.713Z,9.58
2023-03-26T09:44:23.811Z,9.37
2023-03-26T09:47:24.248Z,9.55
2023-03-26T09:50:01.200Z,8.53
2023-03-26T09:52:50.329Z,9.60
2023-03-26T09:55:34.527Z,10.46
2023-03-26T09:58:24.479Z,10.34
2023-03-26T10:01:01.051Z,10.57
2023-03-26T10:03:42.090Z,9.71
2023-03-26T10:06:30.023Z,9.79
2023-03-26T10:09:08.532Z,9.32
2023-03-26T10:11:53.664Z,9.45
2023-03-26T10:14:27.805Z,8.98
2023-03-26T10:17:04.937Z,9.67
2023-03-26T10:19:48.698Z,10.81
2023-03-26T10:22:33.260Z,10.51
2023-03-26T10:25:36.272Z,10.57
2023-03-26T10:28:21.520Z,10.81
2023-03-26T10:31:06.044Z,10.98
2023-03-26T10:33:47.533Z,11.38
2023-03-26T10:36:38.418Z,11.29
2023-03-26T10:39:38.054Z,11.65
2023-03-26T10:42:24.690Z,11.24
2023-03-26T10:45:12.661Z,11.86
2023-03-26T10:48:03.067Z,11.42
2023-03-26T10:50:47.308Z,13.05
2023-03-26T10:53:30.976Z,11.08
2023-03-26T10:56:10.805Z,11.84
2023-03-26T10:58:49.752Z,11.80
2023-03-26T11:01:29.560Z,12.05
2023-03-26T11:04:01.732Z,13.53
2023-03-26T11:06:39.745Z,13.51
2023-03-26T11:09:21.029Z,12.63
2023-03-26T11:11:57.104Z,11.80
2023-03-26T11:14:34.899Z,12.67
2023-03-26T11:17:14.739Z,13.50
2023-03-26T11:20:04.862Z,12.91
2023-03-26T11:22:39.364Z,13.31
2023-03-26T11:25:33.997Z,12.27
2023-03-26T11:28:20.764Z,13.19
2023-03-26T11:30:54.061Z,14.58
2023-03-26T11:33:26.018Z,15.03
2023-03-26T11:36:04.649Z,14.70
2023-03-26T11:38:37.799Z,13.44
2023-03-26T11:41:14.093Z,13.46
2023-03-26T11:43:41.862Z,14.56
2023-03-26T11:46:13.524Z,14.82
2023-03-26T11:48:44.396Z,13.19
2023-03-26T11:51:18.610Z,12.80
2023-03-26T11:53:46.880Z,14.51
2023-03-26T11:56:24.409Z,12.98
2023-03-26T11:58:56.571Z,14.12
2023-03-26T12:01:30.351Z,12.57
2023-03-26T12:04:03.592Z,12.35
2023-03-26T12:06:33.034Z,14.06
2023-03-26T12:09:00.918Z,14.52
2023-03-26T12:11:35.421Z,12.33
2023-03-26T12:14:05.982Z,13.62
2023-03-26T12:16:36.058Z,14.07
2023-03-26T12:19:08.139Z,12.89
2023-03-26T12:21:46.162Z,13.75
2023-03-26T12:24:29.367Z,13.07
2023-03-26T12:27:03.127Z,13.80
2023-03-26T12:29:34.466Z,12.91
2023-03-26T12:32:08.678Z,13.13
2023-03-26T12:34:38.341Z,13.53
2023-03-26T12:37:07.856Z,12.84
2023-03-26T12:40:07.795Z,14.57
2023-03-26T12:44:48.982Z,12.36
2023-03-26T12:45:21.579Z,12.18
2023-03-26T12:47:58.925Z,12.41
2023-03-26T12:50:38.143Z,13.13
2023-03-26T12:53:29.696Z,14.11
2023-03-26T12:56:02.288Z,15.21
2023-03-26T12:58:51.454Z,15.42
2023-03-26T13:01:29.353Z,14.73
2023-03-26T13:04:17.244Z,15.49
2023-03-26T13:07:00.202Z,16.13
2023-03-26T13:09:55.342Z,15.66
2023-03-26T13:12:38.180Z,14.70
2023-03-26T13:15:26.447Z,13.69
2023-03-26T13:18:07.567Z,13.02
2023-03-26T13:20:50.270Z,13.94
2023-03-26T13:23:28.647Z,13.05
2023-03-26T13:26:04.412Z,14.44
2023-03-26T13:28:40.449Z,13.62
2023-03-26T13:31:16.322Z,14.24
2023-03-26T13:33:55.789Z,13.62
2023-03-26T13:36:32.573Z,13.45
2023-03-26T13:39:13.111Z,13.48
2023-03-26T13:42:03.502Z,12.02
2023-03-26T13:44:39.101Z,13.56
2023-03-26T13:47:14.207Z,14.19
2023-03-26T13:49:45.189Z,13.13
2023-03-26T13:52:18.578Z,12.18
2023-03-26T13:54:50.720Z,11.59
2023-03-26T13:57:25.734Z,11.36
2023-03-26T13:59:57.405Z,11.73
2023-03-26T14:02:35.283Z,11.97
2023-03-26T14:05:08.720Z,12.76
2023-03-26T14:07:44.157Z,13.08
2023-03-26T14:10:16.392Z,12.25
2023-03-26T14:12:55.128Z,11.60
2023-03-26T14:15:29.911Z,11.83
2023-03-26T14:18:07.748Z,12.49
2023-03-26T14:20:59.462Z,12.57
2023-03-26T14:23:49.314Z,13.22
2023-03-26T14:26:28.389Z,12.43
2023-03-26T14:29:14.768Z,12.46
2023-03-26T14:31:51.762Z,12.03
2023-03-26T14:34:40.673Z,13.31
2023-03-26T14:37:28.226Z,11.22
2023-03-26T14:40:25.553Z,11.93
2023-03-26T14:42:58.966Z,12.04
2023-03-26T14:45:45.777Z,12.14
2023-03-26T14:48:42.576Z,11.78
2023-03-26T14:51:24.313Z,11.87
2023-03-26T14:53:56.271Z,11.95
2023-03-26T14:56:50.559Z,11.74
2023-03-26T14:59:51.121Z,11.42
2023-03-26T15:02:54.440Z,11.79
2023-03-26T15:06:00.168Z,11.72
2023-03-26T15:09:04.090Z,11.77
2023-03-26T15:11:40.957Z,11.54
2023-03-26T15:14:41.860Z,13.38
2023-03-26T15:17:40.995Z,12.54
2023-03-26T15:20:35.310Z,11.69
2023-03-26T15:23:39.106Z,12.72
2023-03-26T15:26:49.730Z,13.05
2023-03-26T15:30:14.138Z,12.55
2023-03-26T15:33:18.179Z,12.25
2023-03-26T15:36:15.054Z,11.20
2023-03-26T15:39:15.898Z,12.14
2023-03-26T15:41:53.511Z,11.51
2023-03-26T15:44:53.146Z,11.48
2023-03-26T15:47:40.810Z,12.63
2023-03-26T15:50:30.310Z,13.68
2023-03-26T15:53:14.567Z,13.31
2023-03-26T15:55:53.999Z,13.19
2023-03-26T15:58:28.755Z,13.19
2023-03-26T16:01:18.843Z,13.14
2023-03-26T16:03:54.855Z,12.84
2023-03-26T16:06:31.958Z,12.65
2023-03-26T16:09:14.814Z,12.54
2023-03-26T16:11:58.325Z,12.94
2023-03-26T16:14:44.037Z,12.59
2023-03-26T16:17:14.711Z,11.81
2023-03-26T16:19:50.282Z,12.35
2023-03-26T16:22:42.526Z,12.26
2023-03-26T16:25:27.466Z,12.15
2023-03-26T16:28:27.490Z,12.00
2023-03-26T16:31:37.534Z,11.51
2023-03-26T16:34:42.483Z,10.98
2023-03-26T16:37:36.449Z,10.43
2023-03-26T16:40:44.220Z,11.51
2023-03-26T16:43:31.888Z,10.58
2023-03-26T16:46:06.809Z,10.21
2023-03-26T16:48:42.467Z,9.83
2023-03-26T16:51:18.598Z,9.85
2023-03-26T16:53:54.485Z,9.89
2023-03-26T16:56:36.129Z,10.40
2023-03-26T16:59:10.154Z,9.78
2023-03-26T17:01:44.375Z,9.64
2023-03-26T17:04:20.645Z,10.23
2023-03-26T17:07:01.592Z,9.74
2023-03-26T17:09:38.130Z,9.82
2023-03-26T17:12:15.089Z,9.83
2023-03-26T17:14:54.872Z,9.46
2023-03-26T17:17:36.782Z,9.80
2023-03-26T17:20:16.620Z,10.14
2023-03-26T17:22:48.729Z,9.43
2023-03-26T17:25:25.792Z,9.19
2023-03-26T17:28:12.184Z,9.24
2023-03-26T17:30:58.427Z,9.17
2023-03-26T17:33:34.767Z,9.02
2023-03-26T17:36:32.259Z,9.12
2023-03-26T17:39:35.499Z,9.91
2023-03-26T17:42:18.957Z,9.61
2023-03-26T17:44:51.405Z,9.43
2023-03-26T17:47:27.503Z,9.19
2023-03-26T17:50:01.272Z,9.55
2023-03-26T17:52:48.959Z,9.14
2023-03-26T17:55:22.431Z,8.89
2023-03-26T17:57:54.247Z,8.74
2023-03-26T18:00:24.257Z,8.74
2023-03-26T18:02:56.327Z,8.81
2023-03-26T18:05:27.570Z,8.75
2023-03-26T18:08:21.702Z,8.63
2023-03-26T18:11:21.346Z,8.61
2023-03-26T18:14:26.094Z,8.53
2023-03-26T18:16:57.617Z,8.00
2023-03-26T18:19:25.916Z,8.13
2023-03-26T18:21:56.760Z,8.27
2023-03-26T18:24:29.338Z,8.38
2023-03-26T18:27:00.160Z,8.57
2023-03-26T18:29:29.675Z,8.75
2023-03-26T18:32:00.479Z,8.31
2023-03-26T18:34:31.961Z,8.52
2023-03-26T18:37:15.676Z,8.59
2023-03-26T18:39:59.134Z,8.41
2023-03-26T18:42:28.195Z,8.62
2023-03-26T18:44:59.901Z,8.81
2023-03-26T18:47:31.559Z,8.20
2023-03-26T18:50:00.791Z,8.28
2023-03-26T18:52:30.125Z,8.51
2023-03-26T18:55:00.920Z,8.27
2023-03-26T18:57:30.317Z,8.75
2023-03-26T19:00:18.474Z,8.47
2023-03-26T19:02:49.724Z,8.12
2023-03-26T19:05:19.617Z,8.23
2023-03-26T19:07:49.150Z,8.35
2023-03-26T19:10:22.095Z,8.29
2023-03-26T19:12:56.370Z,8.56
2023-03-26T19:15:25.685Z,8.38
2023-03-26T19:17:58.461Z,8.25
2023-03-26T19:20:28.833Z,8.19
2023-03-26T19:22:58.138Z,8.60
2023-03-26T19:25:31.211Z,8.14
2023-03-26T19:27:59.755Z,8.42
2023-03-26T19:30:31.739Z,8.17
2023-03-26T19:33:12.260Z,8.23
2023-03-26T19:35:42.845Z,7.87
2023-03-26T19:38:26.075Z,7.82
2023-03-26T19:40:56.981Z,8.52
2023-03-26T19:43:25.642Z,8.26
2023-03-26T19:45:59.861Z,8.62
2023-03-26T19:48:46.899Z,8.38
2023-03-26T19:51:21.030Z,8.15
2023-03-26T19:53:53.040Z,7.88
2023-03-26T19:56:22.911Z,8.34
2023-03-26T19:58:51.030Z,8.20
2023-03-26T20:01:20.982Z,8.54
2023-03-26T20:03:51.448Z,8.09
2023-03-26T20:06:27.850Z,7.70
2023-03-26T20:09:02.657Z,7.58
2023-03-26T20:11:36.513Z,7.83
2023-03-26T20:14:12.548Z,7.91
2023-03-26T20:16:41.638Z,7.54
2023-03-26T20:19:11.149Z,7.79
2023-03-26T20:21:40.271Z,7.59
2023-03-26T20:24:14.628Z,7.24
2023-03-26T20:26:43.942Z,7.40
2023-03-26T20:29:11.768Z,6.75
2023-03-26T20:31:41.606Z,7.51
2023-03-26T20:34:16.606Z,7.81
2023-03-26T20:36:45.558Z,7.22
2023-03-26T20:39:13.579Z,6.66
2023-03-26T20:41:46.611Z,7.42
2023-03-26T20:44:16.477Z,7.41
2023-03-26T20:46:45.521Z,6.60
2023-03-26T20:49:15.089Z,6.69
2023-03-26T20:51:44.757Z,7.04
2023-03-26T20:54:17.543Z,6.50
2023-03-26T20:56:48.042Z,6.76
2023-03-26T20:59:21.594Z,6.95
2023-03-26T21:01:51.209Z,6.55
2023-03-26T21:04:20.886Z,6.56
2023-03-26T21:06:48.723Z,6.67
2023-03-26T21:09:23.459Z,6.36
2023-03-26T21:12:01.773Z,6.79
2023-03-26T21:14:39.047Z,6.23
2023-03-26T21:17:08.125Z,6.58
2023-03-26T21:19:36.353Z,6.60
2023-03-26T21:22:16.724Z,6.60
2023-03-26T21:25:02.177Z,7.04
2023-03-26T21:27:40.867Z,6.17
2023-03-26T21:30:14.261Z,6.40
2023-03-26T21:32:43.279Z,6.15
2023-03-26T21:35:13.298Z,5.68
2023-03-26T21:37:42.781Z,6.16
2023-03-26T21:40:14.832Z,6.39
2023-03-26T21:42:46.210Z,6.32
2023-03-26T21:45:14.959Z,6.11
2023-03-26T21:47:44.141Z,6.06
2023-03-26T21:50:14.624Z,5.92
2023-03-26T21:52:47.801Z,5.83
2023-03-26T21:55:18.287Z,5.84
2023-03-26T21:58:15.478Z,5.60
2023-03-26T22:00:56.761Z,5.80
2023-03-26T22:03:29.061Z,5.33
2023-03-26T22:06:04.353Z,5.72
2023-03-26T22:08:36.871Z,5.75
2023-03-26T22:11:04.601Z,5.57
2023-03-26T22:13:35.386Z,5.58
2023-03-26T22:16:04.833Z,5.57
2023-03-26T22:18:33.189Z,5.77
2023-03-26T22:21:01.309Z,5.34
2023-03-26T22:23:34.121Z,5.13
2023-03-26T22:26:01.978Z,5.22
2023-03-26T22:28:30.742Z,5.48
2023-03-26T22:31:00.153Z,6.02
2023-03-26T22:33:28.110Z,5.26
2023-03-26T22:35:57.092Z,5.63
2023-03-26T22:38:24.824Z,4.97
2023-03-26T22:40:56.691Z,5.45
2023-03-26T22:43:24.739Z,5.33
2023-03-26T22:45:54.597Z,5.62
2023-03-26T22:48:24.945Z,5.53
2023-03-26T22:51:00.263Z,5.67
2023-03-26T22:53:28.802Z,5.24
2023-03-26T22:55:56.546Z,5.38
2023-03-26T22:58:24.638Z,5.52
2023-03-26T23:00:53.153Z,5.34
2023-03-26T23:03:21.994Z,4.99
2023-03-26T23:06:07.879Z,4.75
2023-03-26T23:08:37.897Z,4.88
2023-03-26T23:11:09.621Z,5.39
2023-03-26T23:13:37.586Z,5.45
2023-03-26T23:16:06.638Z,5.55
2023-03-26T23:18:34.583Z,5.00
2023-03-26T23:21:02.417Z,5.10
2023-03-26T23:23:34.035Z,5.19
2023-03-26T23:26:03.521Z,5.17
2023-03-26T23:28:33.245Z,5.04
2023-03-26T23:31:03.300Z,4.82
2023-03-26T23:33:35.173Z,5.10
2023-03-26T23:36:08.914Z,5.27
2023-03-26T23:38:43.688Z,4.99
2023-03-26T23:41:15.284Z,5.31
2023-03-26T23:43:53.945Z,5.29
2023-03-26T23:46:24.528Z,4.44
2023-03-26T23:48:53.110Z,5.07
2023-03-26T23:51:22.359Z,5.15
2023-03-26T23:53:52.503Z,5.21
2023-03-26T23:56:20.676Z,5.03
2023-03-26T23:58:48.693Z,5.57
